Time;durP1;ratioP1;P1;durP2;ratioP2;P2;SDS_P1;SDS_P2;PMS_P1;PMS_P2;Temp;Humidity;BMP_temperature;BMP_pressure;BME280_temperature;BME280_humidity;BME280_pressure;Samples;Min_cycle;Max_cycle;Signal;HPM_P1;HPM_P2
2022/09/28 00:01:29;;;;;;;14.57;13.03;;;13.40;99.90;;;;;;5016865;28;20211;-70
2022/09/28 00:03:58;;;;;;;18.37;14.63;;;13.40;99.90;;;;;;5033504;28;20210;-69
2022/09/28 00:06:27;;;;;;;16.43;14.33;;;13.40;99.90;;;;;;5021624;28;20214;-69
2022/09/28 00:08:54;;;;;;;14.73;13.13;;;13.40;99.90;;;;;;5034943;28;20229;-70
2022/09/28 00:11:23;;;;;;;14.37;12.27;;;13.40;99.90;;;;;;5020257;28;20325;-69
2022/09/28 00:13:51;;;;;;;14.00;12.37;;;13.30;99.90;;;;;;5025569;28;20274;-69
2022/09/28 00:16:21;;;;;;;12.17;10.87;;;13.30;99.90;;;;;;5025211;28;20226;-66
2022/09/28 00:18:49;;;;;;;12.33;10.97;;;13.30;99.90;;;;;;5015498;28;20211;-69
2022/09/28 00:21:20;;;;;;;12.60;10.30;;;13.30;99.90;;;;;;5030888;28;20226;-68
2022/09/28 00:26:33;;;;;;;9.97;8.57;;;13.20;99.90;;;;;;5017494;28;20264;-68
2022/09/28 00:29:02;;;;;;;9.30;8.23;;;13.10;99.90;;;;;;5028653;28;20222;-69
2022/09/28 00:31:32;;;;;;;7.50;6.80;;;13.10;99.90;;;;;;5047996;28;20210;-68
2022/09/28 00:34:15;;;;;;;6.57;5.90;;;13.00;99.90;;;;;;5029993;28;20203;-68
2022/09/28 00:36:47;;;;;;;6.13;5.10;;;13.00;99.90;;;;;;5015512;28;20302;-68
2022/09/28 00:39:30;;;;;;;5.97;5.27;;;12.90;99.90;;;;;;5031611;28;20198;-69
2022/09/28 00:42:01;;;;;;;4.43;3.77;;;12.80;99.90;;;;;;5015669;28;20214;-68
2022/09/28 00:44:50;;;;;;;4.07;3.67;;;12.80;99.90;;;;;;5027128;28;20263;-69
2022/09/28 00:47:45;;;;;;;5.00;3.27;;;12.60;99.90;;;;;;5022805;28;20568;-68
2022/09/28 00:50:24;;;;;;;3.40;3.10;;;12.50;99.90;;;;;;5020730;28;20229;-68
2022/09/28 00:52:56;;;;;;;3.30;3.00;;;12.50;99.90;;;;;;5015955;28;20233;-68
2022/09/28 00:55:31;;;;;;;2.43;2.23;;;12.40;99.90;;;;;;5015911;28;20270;-68
2022/09/28 00:58:04;;;;;;;2.73;2.40;;;12.30;99.90;;;;;;5030318;28;20265;-68
2022/09/28 01:00:32;;;;;;;3.13;2.53;;;12.20;99.90;;;;;;5016107;28;20210;-69
2022/09/28 01:03:01;;;;;;;2.70;2.50;;;12.10;99.90;;;;;;5029282;28;20214;-68
2022/09/28 01:05:32;;;;;;;2.80;2.47;;;12.10;99.90;;;;;;5028595;28;20635;-69
2022/09/28 01:08:02;;;;;;;2.57;2.37;;;12.00;99.90;;;;;;5019330;28;20211;-70
2022/09/28 01:10:30;;;;;;;2.87;2.23;;;12.00;99.90;;;;;;5027529;28;20219;-70
2022/09/28 01:12:58;;;;;;;2.70;2.40;;;11.90;99.90;;;;;;5022125;28;20583;-70
2022/09/28 01:15:27;;;;;;;3.17;2.33;;;11.90;99.90;;;;;;5031098;28;20231;-68
2022/09/28 01:18:07;;;;;;;3.63;2.40;;;11.90;99.90;;;;;;5017882;28;20221;-69
2022/09/28 01:20:47;;;;;;;2.70;2.37;;;11.90;99.90;;;;;;5040209;28;20203;-69
2022/09/28 01:23:37;;;;;;;2.63;1.93;;;11.80;99.90;;;;;;5034182;28;20245;-69
2022/09/28 01:26:39;;;;;;;2.33;2.13;;;11.80;99.90;;;;;;5028019;28;20536;-68
2022/09/28 01:29:15;;;;;;;3.23;2.00;;;11.80;99.90;;;;;;5012904;28;20202;-68
2022/09/28 01:31:48;;;;;;;2.40;2.20;;;11.80;99.90;;;;;;5034390;28;20207;-69
2022/09/28 01:34:18;;;;;;;4.13;1.90;;;11.80;99.90;;;;;;5016097;28;20569;-68
2022/09/28 01:36:50;;;;;;;2.60;2.10;;;11.80;99.90;;;;;;5021032;28;20226;-69
2022/09/28 01:39:21;;;;;;;3.07;2.27;;;11.70;99.90;;;;;;5036737;28;20569;-68
2022/09/28 01:41:52;;;;;;;2.10;1.90;;;11.70;99.90;;;;;;5024207;28;20207;-69
2022/09/28 01:44:22;;;;;;;2.40;1.77;;;11.80;99.90;;;;;;5013973;28;20328;-68
2022/09/28 01:46:50;;;;;;;2.23;2.00;;;11.70;99.90;;;;;;5015448;28;20199;-69
2022/09/28 01:49:20;;;;;;;2.33;2.00;;;11.70;99.90;;;;;;5027930;28;20206;-69
2022/09/28 01:51:53;;;;;;;2.10;1.77;;;11.70;99.90;;;;;;5048995;28;20201;-68
2022/09/28 01:54:26;;;;;;;1.90;1.80;;;11.70;99.90;;;;;;5029341;28;20607;-68
2022/09/28 01:56:57;;;;;;;1.60;1.50;;;11.70;99.90;;;;;;5023100;28;20215;-69
2022/09/28 01:59:27;;;;;;;1.60;1.50;;;11.80;99.90;;;;;;5028710;28;20209;-69
2022/09/28 02:01:58;;;;;;;1.73;1.60;;;11.80;99.90;;;;;;5020685;28;20665;-68
2022/09/28 02:04:29;;;;;;;1.90;1.80;;;11.80;99.90;;;;;;5033832;28;20225;-68
2022/09/28 02:07:02;;;;;;;1.70;1.60;;;11.80;99.90;;;;;;5014421;28;20203;-68
2022/09/28 02:09:34;;;;;;;1.77;1.67;;;11.80;99.90;;;;;;5032353;28;20256;-69
2022/09/28 02:12:09;;;;;;;1.87;1.43;;;11.90;99.90;;;;;;5013267;28;20234;-70
2022/09/28 02:14:38;;;;;;;1.73;1.50;;;11.90;99.90;;;;;;5017910;28;20619;-69
2022/09/28 02:17:05;;;;;;;2.70;1.40;;;11.90;99.90;;;;;;5025143;28;20698;-69
2022/09/28 02:19:33;;;;;;;2.27;1.53;;;11.80;99.90;;;;;;5026872;28;20302;-70
2022/09/28 02:22:06;;;;;;;2.63;1.60;;;11.90;99.90;;;;;;5013361;28;20235;-69
2022/09/28 02:24:38;;;;;;;2.07;1.70;;;11.90;99.90;;;;;;5013739;28;20230;-70
2022/09/28 02:27:12;;;;;;;2.03;1.37;;;11.90;99.90;;;;;;5014641;28;20230;-69
2022/09/28 02:29:38;;;;;;;1.63;1.53;;;11.90;99.90;;;;;;5031701;28;20199;-68
2022/09/28 02:32:05;;;;;;;1.80;1.70;;;11.90;99.90;;;;;;5027684;28;20569;-69
2022/09/28 02:34:32;;;;;;;2.33;1.63;;;11.90;99.90;;;;;;5023012;28;20211;-68
2022/09/28 02:37:00;;;;;;;2.20;1.70;;;11.80;99.90;;;;;;5028865;28;20270;-68
2022/09/28 02:39:27;;;;;;;2.87;1.87;;;11.90;99.90;;;;;;5036064;28;20574;-68
2022/09/28 02:42:02;;;;;;;1.67;1.50;;;11.90;99.90;;;;;;5031341;28;20533;-69
2022/09/28 02:44:48;;;;;;;2.57;1.77;;;11.90;99.90;;;;;;5014019;28;20199;-69
2022/09/28 02:47:27;;;;;;;2.50;2.03;;;12.00;99.90;;;;;;5013944;28;20559;-69
2022/09/28 02:50:01;;;;;;;2.00;1.40;;;11.90;99.90;;;;;;5037793;28;20199;-68
2022/09/28 02:52:43;;;;;;;1.60;1.50;;;11.90;99.90;;;;;;5026485;28;20203;-70
2022/09/28 02:55:23;;;;;;;2.23;1.87;;;11.90;99.90;;;;;;5014274;28;20566;-69
2022/09/28 02:58:12;;;;;;;2.10;1.80;;;11.90;99.90;;;;;;5027615;28;20238;-69
2022/09/28 03:00:51;;;;;;;2.33;1.87;;;11.90;99.90;;;;;;5021478;28;20203;-69
2022/09/28 03:03:21;;;;;;;2.40;2.20;;;11.90;99.90;;;;;;5027219;28;20203;-68
2022/09/28 03:05:57;;;;;;;2.53;2.30;;;11.90;99.90;;;;;;5029079;28;20210;-68
2022/09/28 03:08:29;;;;;;;2.80;2.50;;;11.90;99.90;;;;;;5022848;28;20202;-70
2022/09/28 03:10:59;;;;;;;2.80;2.57;;;11.90;99.90;;;;;;5032464;28;20202;-68
2022/09/28 03:13:28;;;;;;;4.30;3.77;;;11.90;99.90;;;;;;5027752;28;20214;-69
2022/09/28 03:16:08;;;;;;;3.67;3.37;;;11.90;99.90;;;;;;5024889;28;20238;-68
2022/09/28 03:18:35;;;;;;;4.40;4.00;;;11.90;99.90;;;;;;5025433;28;20206;-68
2022/09/28 03:21:03;;;;;;;4.53;4.13;;;11.90;99.90;;;;;;5018021;28;20297;-68
2022/09/28 03:23:30;;;;;;;4.30;3.77;;;11.90;99.90;;;;;;5029448;28;20610;-68
2022/09/28 03:25:57;;;;;;;4.30;3.87;;;11.90;99.90;;;;;;5014779;28;20427;-69
2022/09/28 03:28:24;;;;;;;6.90;5.57;;;11.90;99.90;;;;;;5025096;28;20217;-69
2022/09/28 03:30:51;;;;;;;4.67;4.27;;;11.90;99.90;;;;;;5014056;28;20207;-68
2022/09/28 03:33:19;;;;;;;4.80;4.30;;;12.00;99.90;;;;;;5012776;28;20215;-68
2022/09/28 03:35:47;;;;;;;5.40;4.87;;;12.00;99.90;;;;;;5012976;28;20207;-69
2022/09/28 03:38:15;;;;;;;5.37;4.40;;;12.00;99.90;;;;;;5021606;28;20207;-69
2022/09/28 03:40:41;;;;;;;6.50;4.63;;;12.00;99.90;;;;;;5029987;28;20268;-69
2022/09/28 03:43:08;;;;;;;5.80;5.20;;;12.00;99.90;;;;;;5017878;28;20300;-68
2022/09/28 03:45:35;;;;;;;6.80;5.40;;;12.10;99.90;;;;;;5018014;28;20204;-70
2022/09/28 03:48:02;;;;;;;6.13;5.33;;;12.10;99.90;;;;;;5030524;28;20207;-68
2022/09/28 03:50:30;;;;;;;6.03;5.43;;;12.10;99.90;;;;;;5033754;28;20212;-68
2022/09/28 03:53:02;;;;;;;6.23;5.63;;;12.10;99.90;;;;;;5029931;28;20310;-68
2022/09/28 03:55:29;;;;;;;6.27;5.67;;;12.10;99.90;;;;;;5011965;28;20575;-68
2022/09/28 03:57:56;;;;;;;7.57;5.60;;;12.10;99.90;;;;;;5025312;28;20278;-69
2022/09/28 04:00:23;;;;;;;8.23;7.33;;;12.10;99.90;;;;;;5040037;28;20216;-68
2022/09/28 04:02:49;;;;;;;7.70;6.43;;;12.10;99.90;;;;;;5039547;28;20732;-69
2022/09/28 04:05:16;;;;;;;8.13;6.80;;;12.20;99.90;;;;;;5015567;28;20544;-68
2022/09/28 04:07:44;;;;;;;8.33;7.37;;;12.20;99.90;;;;;;5023427;28;20222;-68
2022/09/28 04:10:11;;;;;;;9.13;6.90;;;12.10;99.90;;;;;;5035374;28;20213;-68
2022/09/28 04:12:38;;;;;;;9.07;8.03;;;12.10;99.90;;;;;;5023935;28;20218;-69
2022/09/28 04:15:05;;;;;;;8.47;7.57;;;12.00;99.90;;;;;;5041525;28;20202;-68
2022/09/28 04:17:33;;;;;;;8.73;7.83;;;12.00;99.90;;;;;;5021837;28;20227;-69
2022/09/28 04:20:01;;;;;;;9.97;8.70;;;12.00;99.90;;;;;;5023027;28;20641;-68
2022/09/28 04:22:28;;;;;;;9.20;8.30;;;12.00;99.90;;;;;;5029808;28;20566;-68
2022/09/28 04:24:56;;;;;;;11.37;9.50;;;11.90;99.90;;;;;;5020961;28;20207;-69
2022/09/28 04:30:08;;;;;;;11.70;10.03;;;11.80;99.90;;;;;;5022535;28;20198;-68
2022/09/28 04:32:35;;;;;;;10.97;9.07;;;11.70;99.90;;;;;;5030421;28;20203;-68
2022/09/28 04:35:02;;;;;;;13.43;10.07;;;11.70;99.90;;;;;;5026105;28;20214;-69
2022/09/28 04:37:30;;;;;;;10.50;9.43;;;11.60;99.90;;;;;;5019144;28;20231;-68
2022/09/28 04:39:58;;;;;;;10.73;8.53;;;11.60;99.90;;;;;;5036326;28;20250;-69
2022/09/28 04:42:25;;;;;;;10.97;9.60;;;11.50;99.90;;;;;;5022051;28;20234;-70
2022/09/28 04:44:51;;;;;;;10.80;8.77;;;11.60;99.90;;;;;;5025777;28;20216;-69
2022/09/28 04:47:18;;;;;;;10.37;8.40;;;11.50;99.90;;;;;;5026166;28;20277;-69
2022/09/28 04:49:45;;;;;;;10.93;9.77;;;11.50;99.90;;;;;;5036211;28;20210;-68
2022/09/28 04:52:12;;;;;;;10.33;8.73;;;11.50;99.90;;;;;;5016300;28;20219;-69
2022/09/28 04:54:38;;;;;;;9.80;8.80;;;11.50;99.90;;;;;;5014266;28;20207;-69
2022/09/28 04:57:07;;;;;;;9.23;8.33;;;11.40;99.90;;;;;;5024261;28;20726;-69
2022/09/28 04:59:36;;;;;;;9.80;8.80;;;11.40;99.90;;;;;;5022851;28;20211;-67
2022/09/28 05:02:03;;;;;;;9.67;8.63;;;11.40;99.90;;;;;;5030875;28;20306;-67
2022/09/28 05:04:30;;;;;;;9.23;8.33;;;11.40;99.90;;;;;;5018588;28;20218;-70
2022/09/28 05:06:57;;;;;;;10.90;9.40;;;11.40;99.90;;;;;;5021819;28;20203;-69
2022/09/28 05:09:23;;;;;;;10.30;8.63;;;11.30;99.90;;;;;;5036444;28;20214;-68
2022/09/28 05:11:51;;;;;;;11.43;10.33;;;11.30;99.90;;;;;;5036336;28;20212;-68
2022/09/28 05:14:20;;;;;;;11.33;9.87;;;11.30;99.90;;;;;;5038359;28;20249;-68
2022/09/28 05:16:47;;;;;;;12.40;9.60;;;11.30;99.90;;;;;;5021989;28;20221;-69
2022/09/28 05:19:14;;;;;;;9.90;8.73;;;11.30;99.90;;;;;;5032413;28;20210;-69
2022/09/28 05:21:44;;;;;;;10.70;9.40;;;11.30;99.90;;;;;;5042405;28;20217;-68
2022/09/28 05:24:10;;;;;;;13.90;9.50;;;11.30;99.90;;;;;;5029090;28;20605;-68
2022/09/28 05:26:37;;;;;;;11.27;9.90;;;11.30;99.90;;;;;;5041141;28;20213;-68
2022/09/28 05:29:04;;;;;;;10.47;9.37;;;11.20;99.90;;;;;;5042384;28;20198;-69
2022/09/28 05:31:32;;;;;;;10.13;9.10;;;11.20;99.90;;;;;;5042779;28;20202;-69
2022/09/28 05:33:59;;;;;;;10.57;9.03;;;11.20;99.90;;;;;;5028904;28;20211;-69
2022/09/28 05:36:26;;;;;;;10.83;9.73;;;11.10;99.90;;;;;;5030985;28;20207;-69
2022/09/28 05:38:53;;;;;;;9.87;8.87;;;11.10;99.90;;;;;;5041508;28;20678;-69
2022/09/28 05:41:20;;;;;;;11.83;9.27;;;11.10;99.90;;;;;;5023145;28;20294;-69
2022/09/28 05:43:47;;;;;;;11.27;10.03;;;11.00;99.90;;;;;;5032754;28;20290;-69
2022/09/28 05:46:14;;;;;;;11.33;9.10;;;11.00;99.90;;;;;;5035577;28;20977;-69
2022/09/28 05:48:42;;;;;;;11.83;9.27;;;11.00;99.90;;;;;;5028526;28;20605;-69
2022/09/28 05:51:09;;;;;;;9.80;8.80;;;11.00;99.90;;;;;;5038317;28;20203;-67
2022/09/28 05:53:36;;;;;;;11.77;9.60;;;11.00;99.90;;;;;;5036735;28;20627;-67
2022/09/28 05:56:03;;;;;;;9.63;8.67;;;11.00;99.90;;;;;;5025052;28;20570;-70
2022/09/28 05:58:30;;;;;;;10.10;9.10;;;11.00;99.90;;;;;;5012627;28;20233;-71
2022/09/28 06:00:57;;;;;;;11.00;9.30;;;11.00;99.90;;;;;;5013313;28;20215;-71
2022/09/28 06:03:24;;;;;;;14.03;10.33;;;11.00;99.90;;;;;;5014135;28;20294;-68
2022/09/28 06:05:53;;;;;;;11.23;9.27;;;11.00;99.90;;;;;;5025100;28;20203;-69
2022/09/28 06:08:19;;;;;;;10.03;8.97;;;11.10;99.90;;;;;;5033161;28;20640;-69
2022/09/28 06:10:47;;;;;;;11.73;9.20;;;11.00;99.90;;;;;;5012710;28;20215;-69
2022/09/28 06:13:13;;;;;;;11.47;9.30;;;11.10;99.90;;;;;;5023741;28;20615;-70
2022/09/28 06:15:43;;;;;;;10.53;9.03;;;11.10;99.90;;;;;;5029168;28;20202;-69
2022/09/28 06:18:13;;;;;;;9.83;8.80;;;11.10;99.90;;;;;;5032913;28;20229;-68
2022/09/28 06:20:40;;;;;;;9.30;8.40;;;11.10;99.90;;;;;;5029069;28;20230;-68
2022/09/28 06:23:09;;;;;;;11.03;9.37;;;11.00;99.90;;;;;;5028226;28;20967;-67
2022/09/28 06:25:36;;;;;;;11.60;9.53;;;11.00;99.90;;;;;;5026837;28;20646;-68
2022/09/28 06:28:05;;;;;;;15.13;10.10;;;11.10;99.90;;;;;;5027622;28;20199;-70
2022/09/28 06:30:37;;;;;;;14.90;10.03;;;11.10;99.90;;;;;;5031717;28;20206;-69
2022/09/28 06:33:05;;;;;;;15.27;11.57;;;11.10;99.90;;;;;;5030103;28;21128;-67
2022/09/28 06:35:32;;;;;;;11.03;9.27;;;11.10;99.90;;;;;;5028285;28;20208;-69
2022/09/28 06:38:00;;;;;;;11.73;9.97;;;11.10;99.90;;;;;;5022972;28;20223;-71
2022/09/28 06:40:29;;;;;;;10.83;9.33;;;11.20;99.90;;;;;;5016039;28;20294;-70
2022/09/28 06:42:57;;;;;;;16.30;10.83;;;11.20;99.90;;;;;;5029356;28;20207;-71
2022/09/28 06:45:24;;;;;;;11.70;10.13;;;11.20;99.90;;;;;;5025671;28;20318;-70
2022/09/28 06:47:55;;;;;;;11.70;9.00;;;11.20;99.90;;;;;;5032455;28;20214;-70
2022/09/28 06:50:22;;;;;;;13.20;9.33;;;11.40;99.90;;;;;;5030898;28;20234;-70
2022/09/28 06:52:51;;;;;;;10.00;8.87;;;11.50;99.90;;;;;;5034062;28;20308;-71
2022/09/28 06:55:18;;;;;;;10.47;8.90;;;11.70;99.90;;;;;;5020945;28;20450;-72
2022/09/28 06:57:46;;;;;;;10.67;8.30;;;11.80;99.90;;;;;;5020639;28;20227;-72
2022/09/28 07:00:14;;;;;;;9.67;8.10;;;11.90;99.90;;;;;;5028936;28;20467;-70
2022/09/28 07:02:41;;;;;;;12.07;10.67;;;12.00;99.90;;;;;;5029236;28;20393;-73
2022/09/28 07:05:12;;;;;;;10.27;8.17;;;12.10;99.90;;;;;;5028561;28;20218;-71
2022/09/28 07:07:39;;;;;;;9.53;7.73;;;12.20;99.90;;;;;;5032534;28;20202;-74
2022/09/28 07:10:06;;;;;;;12.03;9.50;;;12.20;99.90;;;;;;5019962;28;20290;-70
2022/09/28 07:12:35;;;;;;;7.27;6.20;;;12.20;99.90;;;;;;5031041;28;20217;-69
2022/09/28 07:15:04;;;;;;;8.97;7.73;;;12.30;99.90;;;;;;5032728;28;20218;-71
2022/09/28 07:17:33;;;;;;;8.57;7.47;;;12.20;99.90;;;;;;5035079;28;20261;-72
2022/09/28 07:20:02;;;;;;;10.30;7.70;;;12.20;99.90;;;;;;5023752;28;20207;-70
2022/09/28 07:22:29;;;;;;;8.37;7.50;;;12.20;99.90;;;;;;5012282;28;20234;-69
2022/09/28 07:24:56;;;;;;;9.40;7.90;;;12.20;99.90;;;;;;5028520;28;20257;-72
2022/09/28 07:27:24;;;;;;;9.50;8.10;;;12.20;99.90;;;;;;5019396;28;20297;-73
2022/09/28 07:29:52;;;;;;;9.37;7.53;;;12.20;99.90;;;;;;5030138;28;20215;-71
2022/09/28 07:32:20;;;;;;;8.77;7.57;;;12.30;99.90;;;;;;5032089;28;20214;-72
2022/09/28 07:34:47;;;;;;;8.67;7.77;;;12.30;99.90;;;;;;5029494;28;20205;-74
2022/09/28 07:37:14;;;;;;;7.73;7.03;;;12.40;99.90;;;;;;5034622;28;20206;-71
2022/09/28 07:42:28;;;;;;;8.40;7.60;;;12.60;99.90;;;;;;5037975;28;20200;-73
2022/09/28 07:44:56;;;;;;;7.37;6.77;;;12.60;99.90;;;;;;5026627;28;20248;-74
2022/09/28 07:47:25;;;;;;;7.73;7.00;;;12.60;99.90;;;;;;5038277;28;20231;-71
2022/09/28 07:49:53;;;;;;;8.67;7.87;;;12.60;99.90;;;;;;5033612;28;20257;-75
2022/09/28 07:52:24;;;;;;;8.07;7.03;;;12.70;99.90;;;;;;5043039;28;20206;-75
2022/09/28 07:54:53;;;;;;;8.03;6.73;;;12.80;99.90;;;;;;5040781;28;20210;-70
2022/09/28 07:57:20;;;;;;;6.90;6.20;;;12.90;99.90;;;;;;5035023;28;20767;-70
2022/09/28 07:59:48;;;;;;;6.73;6.13;;;13.00;99.90;;;;;;5027880;28;20203;-70
2022/09/28 08:02:16;;;;;;;7.00;6.30;;;13.20;99.90;;;;;;5030948;28;20261;-69
2022/09/28 08:04:44;;;;;;;7.40;5.77;;;13.40;99.90;;;;;;5030957;28;20214;-70
2022/09/28 08:07:11;;;;;;;9.27;6.47;;;13.60;99.90;;;;;;5023519;28;20456;-73
2022/09/28 08:09:38;;;;;;;6.20;5.70;;;13.60;99.90;;;;;;5027197;28;20207;-73
2022/09/28 08:12:06;;;;;;;8.83;5.40;;;13.50;99.90;;;;;;5043985;28;20214;-71
2022/09/28 08:14:33;;;;;;;6.53;5.27;;;13.50;99.90;;;;;;5034054;28;20210;-73
2022/09/28 08:17:00;;;;;;;6.90;6.17;;;13.50;99.90;;;;;;5028650;28;20207;-72
2022/09/28 08:21:43;;;;;;;6.70;5.87;;;13.50;99.90;;;;;;5025688;28;20229;-72
2022/09/28 08:22:18;;;;;;;8.03;5.37;;;13.50;99.90;;;;;;5046483;28;20322;-72
2022/09/28 08:24:48;;;;;;;9.05;7.80;;;13.50;99.90;;;;;;5029106;28;20446;-71
2022/09/28 08:27:16;;;;;;;7.03;6.33;;;13.50;99.90;;;;;;5038780;28;20387;-72
2022/09/28 08:29:43;;;;;;;7.10;6.10;;;13.70;99.90;;;;;;5035534;28;20209;-71
2022/09/28 08:32:10;;;;;;;7.70;5.80;;;14.00;99.90;;;;;;5019659;28;20207;-70
2022/09/28 08:34:39;;;;;;;10.63;6.30;;;14.40;99.90;;;;;;5022826;28;21123;-71
2022/09/28 08:37:07;;;;;;;6.37;5.60;;;14.70;99.90;;;;;;5030788;28;20206;-71
2022/09/28 08:39:36;;;;;;;9.33;6.10;;;15.00;99.90;;;;;;5022748;28;20226;-69
2022/09/28 08:42:14;;;;;;;7.20;5.63;;;15.20;99.90;;;;;;5028106;28;20211;-69
2022/09/28 08:44:45;;;;;;;8.07;6.97;;;15.60;99.90;;;;;;5038436;28;20653;-71
2022/09/28 08:50:02;;;;;;;9.90;6.63;;;16.40;99.90;;;;;;5029908;28;20273;-70
2022/09/28 08:52:33;;;;;;;11.60;6.67;;;16.70;99.90;;;;;;5019396;28;20322;-70
2022/09/28 08:55:09;;;;;;;9.70;6.47;;;16.80;99.90;;;;;;5030110;28;21293;-71
2022/09/28 08:57:43;;;;;;;7.27;6.40;;;16.70;99.90;;;;;;5026986;28;20202;-71
2022/09/28 09:00:17;;;;;;;7.60;6.80;;;16.70;99.90;;;;;;5033147;28;20663;-71
2022/09/28 09:02:45;;;;;;;6.70;6.03;;;16.70;99.90;;;;;;5016369;28;20206;-73
2022/09/28 09:05:15;;;;;;;7.40;6.17;;;16.80;99.90;;;;;;5027760;28;20280;-74
2022/09/28 09:08:13;;;;;;;6.63;5.88;;;16.80;99.90;;;;;;5026551;28;20211;-70
2022/09/28 09:10:50;;;;;;;8.37;5.90;;;16.90;99.90;;;;;;5021472;28;20210;-73
2022/09/28 09:13:48;;;;;;;6.67;5.20;;;17.40;99.90;;;;;;5019198;28;20206;-72
2022/09/28 09:16:28;;;;;;;9.40;5.75;;;18.10;99.90;;;;;;5015065;28;20203;-73
2022/09/28 09:19:04;;;;;;;6.55;5.65;;;18.70;99.90;;;;;;5016863;28;20221;-72
2022/09/28 09:21:40;;;;;;;5.57;4.82;;;19.10;99.90;;;;;;5026059;28;20220;-74
2022/09/28 09:24:26;;;;;;;6.15;5.20;;;19.60;99.90;;;;;;5022339;28;20242;-73
2022/09/28 09:27:15;;;;;;;6.70;4.65;;;19.80;99.90;;;;;;5019145;28;20217;-74
2022/09/28 09:30:03;;;;;;;5.18;4.68;;;19.80;99.90;;;;;;5018934;28;20199;-72
2022/09/28 09:32:43;;;;;;;9.60;4.88;;;20.00;99.90;;;;;;5030722;28;20207;-69
2022/09/28 09:35:29;;;;;;;4.30;3.90;;;22.00;99.90;;;;;;5017396;28;20207;-72
2022/09/28 09:38:15;;;;;;;4.70;3.78;;;25.80;95.70;;;;;;5029660;28;20285;-73
2022/09/28 09:40:54;;;;;;;8.32;3.65;;;28.10;75.30;;;;;;5032370;28;20228;-72
2022/09/28 09:43:52;;;;;;;6.78;3.67;;;27.50;65.80;;;;;;5031935;28;20207;-69
2022/09/28 09:46:25;;;;;;;6.57;3.75;;;26.30;67.50;;;;;;5026229;28;20238;-72
2022/09/28 09:48:55;;;;;;;4.20;2.90;;;25.40;67.40;;;;;;5025712;28;20206;-72
2022/09/28 09:51:28;;;;;;;3.50;2.97;;;25.80;66.50;;;;;;5025102;28;20718;-72
2022/09/28 09:53:59;;;;;;;2.90;2.70;;;27.80;64.50;;;;;;5040994;28;20191;-73
2022/09/28 09:56:33;;;;;;;4.22;2.70;;;29.30;56.70;;;;;;5032721;28;20207;-71
2022/09/28 09:59:06;;;;;;;3.47;2.47;;;28.30;53.10;;;;;;5033685;28;20234;-72
2022/09/28 10:01:36;;;;;;;2.55;2.35;;;26.60;54.80;;;;;;5024865;28;20204;-74
2022/09/28 10:04:06;;;;;;;2.65;2.38;;;25.10;57.00;;;;;;5026086;28;20237;-73
2022/09/28 10:06:39;;;;;;;3.13;2.83;;;25.40;64.30;;;;;;5029349;28;20203;-74
2022/09/28 10:09:11;;;;;;;4.88;2.90;;;26.30;56.80;;;;;;5036279;28;20748;-75
2022/09/28 10:11:42;;;;;;;4.55;2.80;;;25.50;57.80;;;;;;5028541;28;20301;-74
2022/09/28 10:14:15;;;;;;;2.97;2.58;;;24.70;57.60;;;;;;5024898;28;20500;-70
2022/09/28 10:16:43;;;;;;;2.58;2.25;;;24.30;59.20;;;;;;5029973;28;20591;-73
2022/09/28 10:19:12;;;;;;;3.42;2.80;;;23.60;59.10;;;;;;5026457;28;20227;-72
2022/09/28 10:21:40;;;;;;;4.75;2.83;;;23.00;62.40;;;;;;5029462;28;20570;-74
2022/09/28 10:24:15;;;;;;;2.30;2.10;;;24.90;67.90;;;;;;5034547;28;20241;-73
2022/09/28 10:26:46;;;;;;;2.80;2.22;;;26.40;57.10;;;;;;5022265;28;20209;-76
2022/09/28 10:29:16;;;;;;;3.90;2.60;;;25.90;55.00;;;;;;5028313;28;20290;-73
2022/09/28 10:31:45;;;;;;;3.85;2.65;;;24.50;56.30;;;;;;5028499;28;20233;-72
2022/09/28 10:34:13;;;;;;;4.03;2.40;;;23.10;58.40;;;;;;5026620;28;20231;-72
2022/09/28 10:36:53;;;;;;;2.88;2.58;;;22.00;60.80;;;;;;5032925;28;20260;-73
2022/09/28 10:39:31;;;;;;;3.95;2.05;;;21.10;63.30;;;;;;5031385;28;20222;-73
2022/09/28 10:42:02;;;;;;;3.10;2.67;;;20.60;74.00;;;;;;5030918;28;20202;-73
2022/09/28 10:44:32;;;;;;;4.80;2.45;;;23.20;73.70;;;;;;5038449;28;20199;-73
2022/09/28 10:47:01;;;;;;;2.63;2.00;;;27.00;61.20;;;;;;5043585;28;20211;-73
2022/09/28 10:49:32;;;;;;;3.15;2.17;;;29.30;52.60;;;;;;5033451;28;20206;-72
2022/09/28 10:52:11;;;;;;;2.63;2.10;;;28.90;50.70;;;;;;5036740;28;20321;-72
2022/09/28 10:54:53;;;;;;;4.97;2.13;;;27.50;51.20;;;;;;5041924;28;20256;-72
2022/09/28 10:57:28;;;;;;;3.17;1.95;;;25.80;53.10;;;;;;5036235;28;20201;-74
2022/09/28 11:00:29;;;;;;;3.85;1.95;;;24.30;55.00;;;;;;5031489;28;20237;-74
2022/09/28 11:02:56;;;;;;;3.78;2.10;;;22.90;57.10;;;;;;5037031;28;20209;-73
2022/09/28 11:05:27;;;;;;;2.95;1.92;;;21.70;59.00;;;;;;5032726;28;20213;-74
2022/09/28 11:07:56;;;;;;;2.33;1.90;;;20.70;61.30;;;;;;5038468;28;20202;-74
2022/09/28 11:10:26;;;;;;;3.92;2.40;;;19.90;63.80;;;;;;5032660;28;20216;-71
2022/09/28 11:15:42;;;;;;;4.18;2.10;;;18.70;68.30;;;;;;5029147;28;20515;-73
2022/09/28 11:18:28;;;;;;;4.05;2.22;;;18.40;71.10;;;;;;5030930;28;20210;-74
2022/09/28 11:21:08;;;;;;;6.18;2.20;;;19.20;91.10;;;;;;5019150;28;20210;-74
2022/09/28 11:23:35;;;;;;;4.63;2.30;;;23.20;78.30;;;;;;5016516;28;20242;-73
2022/09/28 11:26:06;;;;;;;4.40;1.85;;;27.40;65.30;;;;;;5017348;28;20637;-74
2022/09/28 11:28:36;;;;;;;3.22;2.33;;;31.10;53.90;;;;;;5027078;28;20196;-74
2022/09/28 11:31:06;;;;;;;2.22;1.90;;;33.50;48.60;;;;;;5032207;28;20228;-71
2022/09/28 11:33:36;;;;;;;3.10;1.83;;;34.20;42.80;;;;;;5037315;28;20581;-72
2022/09/28 11:36:29;;;;;;;3.08;1.85;;;33.20;41.10;;;;;;5018973;28;20234;-71
2022/09/28 11:39:05;;;;;;;4.53;1.95;;;31.10;42.70;;;;;;5018253;28;20245;-74
2022/09/28 11:41:44;;;;;;;2.47;1.85;;;28.90;45.40;;;;;;5039202;28;20243;-73
2022/09/28 11:44:30;;;;;;;2.50;2.00;;;27.30;47.80;;;;;;5031903;28;20667;-73
2022/09/28 11:47:16;;;;;;;3.88;2.15;;;25.90;50.00;;;;;;5040808;28;20210;-73
2022/09/28 11:49:49;;;;;;;3.38;2.00;;;24.40;51.80;;;;;;5036478;28;20202;-74
2022/09/28 11:52:20;;;;;;;3.60;2.25;;;23.00;54.10;;;;;;5034693;28;20686;-72
2022/09/28 11:54:53;;;;;;;2.45;2.03;;;21.90;56.30;;;;;;5038894;28;20653;-72
2022/09/28 11:57:36;;;;;;;4.80;2.40;;;21.10;58.00;;;;;;5044936;28;20198;-72
2022/09/28 12:00:08;;;;;;;5.53;1.98;;;20.40;61.40;;;;;;5036883;28;20241;-74
2022/09/28 12:02:51;;;;;;;3.08;2.00;;;20.30;64.30;;;;;;5047757;28;20265;-69
2022/09/28 12:05:24;;;;;;;3.10;1.80;;;20.70;64.20;;;;;;5038222;28;20207;-73
2022/09/28 12:07:56;;;;;;;1.20;1.10;;;21.20;66.00;;;;;;5008698;28;20257;-73
2022/09/28 12:11:14;;;;;;;1.48;1.20;;;21.80;60.40;;;;;;5037260;28;20246;-73
2022/09/28 12:13:46;;;;;;;1.70;1.10;;;21.80;58.70;;;;;;5035856;28;20211;-72
2022/09/28 12:16:19;;;;;;;2.05;1.30;;;21.60;59.50;;;;;;5027652;28;20445;-73
2022/09/28 12:18:51;;;;;;;2.80;1.50;;;21.70;59.30;;;;;;5028890;28;20230;-72
2022/09/28 12:21:40;;;;;;;6.05;2.47;;;21.50;58.80;;;;;;5038678;28;20202;-74
2022/09/28 12:24:16;;;;;;;3.63;1.10;;;21.10;59.50;;;;;;5032731;28;20765;-73
2022/09/28 12:26:48;;;;;;;1.20;1.10;;;21.00;64.30;;;;;;5027910;28;20198;-72
2022/09/28 12:29:20;;;;;;;2.88;1.73;;;22.80;64.40;;;;;;5033681;28;20203;-71
2022/09/28 12:31:57;;;;;;;14.20;2.92;;;25.60;58.30;;;;;;5030996;28;20284;-72
2022/09/28 12:34:25;;;;;;;2.38;1.38;;;27.00;54.20;;;;;;5038246;28;20257;-75
2022/09/28 12:37:05;;;;;;;2.10;1.20;;;27.30;49.30;;;;;;5038416;28;20209;-71
2022/09/28 12:39:45;;;;;;;1.15;0.65;;;26.80;50.30;;;;;;5031585;28;20740;-73
2022/09/28 12:42:31;;;;;;;2.10;0.77;;;25.90;49.40;;;;;;5026443;28;20675;-73
2022/09/28 12:45:22;;;;;;;0.98;0.65;;;24.60;49.80;;;;;;5033426;28;20211;-72
2022/09/28 12:48:16;;;;;;;1.10;0.95;;;24.00;55.40;;;;;;5027727;28;20214;-72
2022/09/28 12:50:51;;;;;;;3.83;1.35;;;23.80;52.40;;;;;;5037049;28;20715;-72
2022/09/28 12:53:37;;;;;;;1.40;1.05;;;22.80;54.10;;;;;;5040472;28;20280;-72
2022/09/28 12:56:08;;;;;;;2.00;1.50;;;21.50;56.10;;;;;;5032176;28;20708;-72
2022/09/28 12:58:49;;;;;;;3.20;1.25;;;20.70;58.00;;;;;;5031233;28;20243;-72
2022/09/28 13:01:37;;;;;;;1.98;1.25;;;20.00;59.50;;;;;;5034072;28;20248;-72
2022/09/28 13:04:33;;;;;;;1.30;1.20;;;19.40;61.20;;;;;;5022453;28;20214;-72
2022/09/28 13:07:06;;;;;;;1.30;1.20;;;18.90;63.00;;;;;;5030379;28;20209;-72
2022/09/28 13:09:44;;;;;;;2.15;1.50;;;18.60;64.60;;;;;;5034341;28;20198;-71
2022/09/28 13:12:29;;;;;;;3.72;1.40;;;18.20;66.60;;;;;;5029309;28;20207;-72
2022/09/28 13:15:17;;;;;;;3.65;2.13;;;17.80;69.90;;;;;;5043530;28;20217;-71
2022/09/28 13:17:56;;;;;;;2.90;2.50;;;17.30;70.10;;;;;;5018652;28;20214;-72
2022/09/28 13:20:42;;;;;;;2.53;1.63;;;16.90;72.00;;;;;;5022357;28;20241;-71
2022/09/28 13:23:18;;;;;;;3.72;2.45;;;16.60;74.40;;;;;;5020294;28;20249;-70